sensor_id;sensor_type;location;lat;lon;timestamp;pressure;altitude;pressure_sealevel;temperature;humidity
73651;BME280;61944;52.538;6.108;2023-04-28T00:00:26;101393.25;;;8.02;93.82
73651;BME280;61944;52.538;6.108;2023-04-28T00:02:52;101383.03;;;7.93;94.88
73651;BME280;61944;52.538;6.108;2023-04-28T00:05:18;101388.03;;;8.00;95.19
73651;BME280;61944;52.538;6.108;2023-04-28T00:07:44;101375.59;;;8.10;94.30
73651;BME280;61944;52.538;6.108;2023-04-28T00:10:09;101374.66;;;8.06;94.30
73651;BME280;61944;52.538;6.108;2023-04-28T00:12:35;101375.59;;;8.10;95.01
73651;BME280;61944;52.538;6.108;2023-04-28T00:15:00;101362.34;;;7.94;95.44
73651;BME280;61944;52.538;6.108;2023-04-28T00:17:25;101360.47;;;8.11;94.59
73651;BME280;61944;52.538;6.108;2023-04-28T00:19:51;101352.69;;;7.92;95.34
73651;BME280;61944;52.538;6.108;2023-04-28T00:22:17;101340.16;;;7.98;95.77
73651;BME280;61944;52.538;6.108;2023-04-28T00:24:43;101336.78;;;8.05;95.16
73651;BME280;61944;52.538;6.108;2023-04-28T00:27:09;101326.22;;;7.86;96.42
73651;BME280;61944;52.538;6.108;2023-04-28T00:29:34;101320.91;;;7.93;96.50
73651;BME280;61944;52.538;6.108;2023-04-28T00:32:01;101321.94;;;7.76;97.24
73651;BME280;61944;52.538;6.108;2023-04-28T00:34:26;101323.81;;;7.84;97.55
73651;BME280;61944;52.538;6.108;2023-04-28T00:36:53;101320.28;;;7.63;98.43
73651;BME280;61944;52.538;6.108;2023-04-28T00:39:18;101320.19;;;7.84;97.75
73651;BME280;61944;52.538;6.108;2023-04-28T00:41:44;101316.47;;;7.80;98.28
73651;BME280;61944;52.538;6.108;2023-04-28T00:44:09;101308.22;;;7.71;98.59
73651;BME280;61944;52.538;6.108;2023-04-28T00:46:34;101301.97;;;7.74;98.87
73651;BME280;61944;52.538;6.108;2023-04-28T00:49:00;101309.88;;;7.72;99.43
73651;BME280;61944;52.538;6.108;2023-04-28T00:51:26;101304.97;;;7.93;97.66
73651;BME280;61944;52.538;6.108;2023-04-28T00:53:55;101311.47;;;7.73;99.57
73651;BME280;61944;52.538;6.108;2023-04-28T00:56:20;101297.06;;;7.71;99.70
73651;BME280;61944;52.538;6.108;2023-04-28T00:58:46;101290.13;;;7.77;99.62
73651;BME280;61944;52.538;6.108;2023-04-28T01:01:11;101287.78;;;7.67;100.00
73651;BME280;61944;52.538;6.108;2023-04-28T01:03:38;101288.84;;;7.62;100.00
73651;BME280;61944;52.538;6.108;2023-04-28T01:06:05;101283.38;;;7.66;100.00
73651;BME280;61944;52.538;6.108;2023-04-28T01:08:32;101285.72;;;7.64;100.00
73651;BME280;61944;52.538;6.108;2023-04-28T01:10:58;101275.59;;;7.71;100.00
73651;BME280;61944;52.538;6.108;2023-04-28T01:13:24;101284.19;;;7.91;98.69
73651;BME280;61944;52.538;6.108;2023-04-28T01:15:50;101279.31;;;7.76;99.70
73651;BME280;61944;52.538;6.108;2023-04-28T01:18:15;101277.34;;;7.64;100.00
73651;BME280;61944;52.538;6.108;2023-04-28T01:20:41;101278.84;;;7.73;99.96
73651;BME280;61944;52.538;6.108;2023-04-28T01:23:15;101269.94;;;7.68;99.82
73651;BME280;61944;52.538;6.108;2023-04-28T01:25:41;101275.72;;;7.87;98.64
73651;BME280;61944;52.538;6.108;2023-04-28T01:28:08;101269.00;;;7.64;99.65
73651;BME280;61944;52.538;6.108;2023-04-28T01:30:33;101254.34;;;7.54;99.76
73651;BME280;61944;52.538;6.108;2023-04-28T01:33:00;101250.53;;;7.35;100.00
73651;BME280;61944;52.538;6.108;2023-04-28T01:35:25;101244.50;;;7.32;100.00
73651;BME280;61944;52.538;6.108;2023-04-28T01:37:51;101236.25;;;7.36;100.00
73651;BME280;61944;52.538;6.108;2023-04-28T01:40:16;101244.63;;;7.48;100.00
73651;BME280;61944;52.538;6.108;2023-04-28T01:42:41;101239.50;;;7.26;100.00
73651;BME280;61944;52.538;6.108;2023-04-28T01:45:07;101249.00;;;7.37;100.00
73651;BME280;61944;52.538;6.108;2023-04-28T01:47:33;101233.22;;;7.41;100.00
73651;BME280;61944;52.538;6.108;2023-04-28T01:49:58;101239.97;;;7.40;100.00
73651;BME280;61944;52.538;6.108;2023-04-28T01:52:24;101226.72;;;7.37;100.00
73651;BME280;61944;52.538;6.108;2023-04-28T01:54:49;101218.00;;;7.14;100.00
73651;BME280;61944;52.538;6.108;2023-04-28T01:57:15;101221.84;;;7.09;100.00
73651;BME280;61944;52.538;6.108;2023-04-28T01:59:41;101204.34;;;7.09;100.00
73651;BME280;61944;52.538;6.108;2023-04-28T02:02:06;101195.88;;;7.18;100.00
73651;BME280;61944;52.538;6.108;2023-04-28T02:04:31;101205.00;;;7.06;100.00
73651;BME280;61944;52.538;6.108;2023-04-28T02:06:57;101201.66;;;7.00;100.00
73651;BME280;61944;52.538;6.108;2023-04-28T02:09:23;101201.22;;;7.10;100.00
73651;BME280;61944;52.538;6.108;2023-04-28T02:11:48;101206.09;;;7.26;100.00
73651;BME280;61944;52.538;6.108;2023-04-28T02:14:14;101202.25;;;7.18;100.00
73651;BME280;61944;52.538;6.108;2023-04-28T02:16:39;101193.28;;;7.12;100.00
73651;BME280;61944;52.538;6.108;2023-04-28T02:19:04;101208.84;;;7.01;100.00
73651;BME280;61944;52.538;6.108;2023-04-28T02:21:30;101202.03;;;7.23;100.00
73651;BME280;61944;52.538;6.108;2023-04-28T02:23:56;101206.78;;;7.35;100.00
73651;BME280;61944;52.538;6.108;2023-04-28T02:26:21;101191.25;;;7.46;100.00
73651;BME280;61944;52.538;6.108;2023-04-28T02:28:47;101190.66;;;7.41;100.00
73651;BME280;61944;52.538;6.108;2023-04-28T02:31:13;101193.31;;;7.37;100.00
73651;BME280;61944;52.538;6.108;2023-04-28T02:33:39;101195.50;;;7.31;100.00
73651;BME280;61944;52.538;6.108;2023-04-28T02:36:06;101188.66;;;7.41;100.00
73651;BME280;61944;52.538;6.108;2023-04-28T02:38:32;101194.94;;;7.38;100.00
73651;BME280;61944;52.538;6.108;2023-04-28T02:40:59;101188.22;;;7.39;100.00
73651;BME280;61944;52.538;6.108;2023-04-28T02:43:26;101186.81;;;7.21;100.00
73651;BME280;61944;52.538;6.108;2023-04-28T02:45:52;101186.56;;;7.50;100.00
73651;BME280;61944;52.538;6.108;2023-04-28T02:48:18;101165.81;;;7.36;100.00
73651;BME280;61944;52.538;6.108;2023-04-28T02:50:43;101173.47;;;7.39;100.00
73651;BME280;61944;52.538;6.108;2023-04-28T02:53:10;101156.91;;;7.42;99.89
73651;BME280;61944;52.538;6.108;2023-04-28T02:55:36;101172.22;;;7.48;99.51
73651;BME280;61944;52.538;6.108;2023-04-28T02:58:01;101174.88;;;7.32;100.00
73651;BME280;61944;52.538;6.108;2023-04-28T03:00:27;101173.56;;;7.67;97.71
73651;BME280;61944;52.538;6.108;2023-04-28T03:02:52;101168.69;;;7.64;97.55
73651;BME280;61944;52.538;6.108;2023-04-28T03:05:18;101164.72;;;7.65;97.95
73651;BME280;61944;52.538;6.108;2023-04-28T03:07:44;101169.06;;;7.50;99.13
73651;BME280;61944;52.538;6.108;2023-04-28T03:10:09;101158.06;;;7.04;100.00
73651;BME280;61944;52.538;6.108;2023-04-28T03:12:35;101150.59;;;7.45;99.04
73651;BME280;61944;52.538;6.108;2023-04-28T03:15:00;101160.47;;;7.67;97.74
73651;BME280;61944;52.538;6.108;2023-04-28T03:17:26;101152.44;;;7.66;97.64
73651;BME280;61944;52.538;6.108;2023-04-28T03:19:51;101144.81;;;7.38;99.61
73651;BME280;61944;52.538;6.108;2023-04-28T03:22:17;101156.63;;;7.60;98.30
73651;BME280;61944;52.538;6.108;2023-04-28T03:24:42;101145.50;;;7.60;97.45
73651;BME280;61944;52.538;6.108;2023-04-28T03:27:07;101150.41;;;7.38;99.93
73651;BME280;61944;52.538;6.108;2023-04-28T03:29:33;101135.06;;;7.44;98.77
73651;BME280;61944;52.538;6.108;2023-04-28T03:31:58;101127.41;;;7.41;99.02
73651;BME280;61944;52.538;6.108;2023-04-28T03:34:24;101124.41;;;7.22;100.00
73651;BME280;61944;52.538;6.108;2023-04-28T03:36:49;101123.59;;;7.09;100.00
73651;BME280;61944;52.538;6.108;2023-04-28T03:39:14;101107.91;;;7.29;100.00
73651;BME280;61944;52.538;6.108;2023-04-28T03:41:40;101107.91;;;7.29;100.00
73651;BME280;61944;52.538;6.108;2023-04-28T03:44:05;101100.97;;;7.35;100.00
73651;BME280;61944;52.538;6.108;2023-04-28T03:46:31;101093.78;;;7.22;100.00
73651;BME280;61944;52.538;6.108;2023-04-28T03:48:56;101097.28;;;6.94;100.00
73651;BME280;61944;52.538;6.108;2023-04-28T03:51:21;101086.94;;;7.19;100.00
73651;BME280;61944;52.538;6.108;2023-04-28T03:53:47;101077.75;;;7.19;100.00
73651;BME280;61944;52.538;6.108;2023-04-28T03:56:12;101079.59;;;7.39;99.72
73651;BME280;61944;52.538;6.108;2023-04-28T03:58:38;101078.78;;;7.39;100.00
73651;BME280;61944;52.538;6.108;2023-04-28T04:01:03;101076.69;;;7.36;99.69
73651;BME280;61944;52.538;6.108;2023-04-28T04:03:29;101084.16;;;7.19;100.00
73651;BME280;61944;52.538;6.108;2023-04-28T04:05:55;101075.38;;;7.05;100.00
73651;BME280;61944;52.538;6.108;2023-04-28T04:08:20;101065.03;;;7.18;100.00
73651;BME280;61944;52.538;6.108;2023-04-28T04:10:46;101065.38;;;7.16;100.00
73651;BME280;61944;52.538;6.108;2023-04-28T04:13:11;101066.16;;;7.17;100.00
73651;BME280;61944;52.538;6.108;2023-04-28T04:15:36;101063.31;;;7.01;100.00
73651;BME280;61944;52.538;6.108;2023-04-28T04:18:02;101065.38;;;7.16;100.00
73651;BME280;61944;52.538;6.108;2023-04-28T04:20:27;101058.25;;;7.43;100.00
73651;BME280;61944;52.538;6.108;2023-04-28T04:22:53;101047.50;;;7.29;100.00
73651;BME280;61944;52.538;6.108;2023-04-28T04:25:18;101052.63;;;7.15;100.00
73651;BME280;61944;52.538;6.108;2023-04-28T04:27:43;101056.75;;;7.33;100.00
73651;BME280;61944;52.538;6.108;2023-04-28T04:30:09;101061.97;;;7.35;100.00
73651;BME280;61944;52.538;6.108;2023-04-28T04:32:34;101051.09;;;7.30;100.00
73651;BME280;61944;52.538;6.108;2023-04-28T04:35:00;101046.91;;;7.24;100.00
73651;BME280;61944;52.538;6.108;2023-04-28T04:37:25;101050.13;;;7.38;99.99
73651;BME280;61944;52.538;6.108;2023-04-28T04:39:51;101051.91;;;7.18;100.00
73651;BME280;61944;52.538;6.108;2023-04-28T04:42:16;101032.81;;;6.92;100.00
73651;BME280;61944;52.538;6.108;2023-04-28T04:44:41;101037.00;;;7.51;98.95
73651;BME280;61944;52.538;6.108;2023-04-28T04:47:07;101029.97;;;7.29;100.00
73651;BME280;61944;52.538;6.108;2023-04-28T04:49:32;101027.88;;;7.38;99.81
73651;BME280;61944;52.538;6.108;2023-04-28T04:51:57;101032.47;;;7.46;100.00
73651;BME280;61944;52.538;6.108;2023-04-28T04:54:23;101028.47;;;7.60;98.48
73651;BME280;61944;52.538;6.108;2023-04-28T04:56:48;101019.38;;;7.47;99.26
73651;BME280;61944;52.538;6.108;2023-04-28T04:59:14;101019.06;;;7.24;100.00
73651;BME280;61944;52.538;6.108;2023-04-28T05:01:39;101022.59;;;7.49;99.10
73651;BME280;61944;52.538;6.108;2023-04-28T05:04:05;101015.50;;;7.51;99.78
73651;BME280;61944;52.538;6.108;2023-04-28T05:06:31;101013.19;;;7.53;99.18
73651;BME280;61944;52.538;6.108;2023-04-28T05:08:56;101020.28;;;7.51;98.50
73651;BME280;61944;52.538;6.108;2023-04-28T05:11:23;101010.44;;;7.41;99.09
73651;BME280;61944;52.538;6.108;2023-04-28T05:13:48;101004.75;;;7.38;99.90
73651;BME280;61944;52.538;6.108;2023-04-28T05:16:14;101005.09;;;7.48;98.47
73651;BME280;61944;52.538;6.108;2023-04-28T05:18:39;101008.00;;;7.40;98.88
73651;BME280;61944;52.538;6.108;2023-04-28T05:21:05;101010.66;;;7.48;98.19
73651;BME280;61944;52.538;6.108;2023-04-28T05:23:31;101006.88;;;7.57;98.23
73651;BME280;61944;52.538;6.108;2023-04-28T05:25:56;100995.50;;;7.62;97.04
73651;BME280;61944;52.538;6.108;2023-04-28T05:28:21;101003.44;;;7.76;96.03
73651;BME280;61944;52.538;6.108;2023-04-28T05:30:47;101007.31;;;7.71;96.58
73651;BME280;61944;52.538;6.108;2023-04-28T05:33:12;101010.81;;;7.68;95.71
73651;BME280;61944;52.538;6.108;2023-04-28T05:35:38;101015.59;;;7.83;95.19
73651;BME280;61944;52.538;6.108;2023-04-28T05:38:03;101013.44;;;7.77;96.10
73651;BME280;61944;52.538;6.108;2023-04-28T05:40:29;101013.59;;;7.68;95.42
73651;BME280;61944;52.538;6.108;2023-04-28T05:42:54;101005.16;;;7.52;95.96
73651;BME280;61944;52.538;6.108;2023-04-28T05:45:20;101013.84;;;7.63;95.91
73651;BME280;61944;52.538;6.108;2023-04-28T05:47:46;101012.06;;;7.70;95.45
73651;BME280;61944;52.538;6.108;2023-04-28T05:50:11;101000.06;;;7.82;94.23
73651;BME280;61944;52.538;6.108;2023-04-28T05:52:37;101004.91;;;7.85;93.63
73651;BME280;61944;52.538;6.108;2023-04-28T05:55:02;101006.34;;;7.79;94.78
73651;BME280;61944;52.538;6.108;2023-04-28T05:57:27;101015.16;;;7.81;95.16
73651;BME280;61944;52.538;6.108;2023-04-28T05:59:53;101008.59;;;7.89;95.20
73651;BME280;61944;52.538;6.108;2023-04-28T06:02:18;101014.00;;;7.82;94.39
73651;BME280;61944;52.538;6.108;2023-04-28T06:04:44;101009.56;;;7.81;94.77
73651;BME280;61944;52.538;6.108;2023-04-28T06:07:09;100997.78;;;7.72;94.51
73651;BME280;61944;52.538;6.108;2023-04-28T06:09:35;101001.09;;;7.78;93.75
73651;BME280;61944;52.538;6.108;2023-04-28T06:12:02;101002.53;;;7.71;94.79
73651;BME280;61944;52.538;6.108;2023-04-28T06:14:28;101001.09;;;7.78;94.11
73651;BME280;61944;52.538;6.108;2023-04-28T06:16:53;100999.50;;;7.77;94.15
73651;BME280;61944;52.538;6.108;2023-04-28T06:19:18;100999.00;;;7.87;93.56
73651;BME280;61944;52.538;6.108;2023-04-28T06:21:45;100990.78;;;7.78;94.17
73651;BME280;61944;52.538;6.108;2023-04-28T06:24:11;100984.94;;;7.83;93.21
73651;BME280;61944;52.538;6.108;2023-04-28T06:26:36;100983.81;;;7.84;93.66
73651;BME280;61944;52.538;6.108;2023-04-28T06:29:02;100998.19;;;7.86;93.24
73651;BME280;61944;52.538;6.108;2023-04-28T06:31:27;100990.63;;;8.03;92.94
73651;BME280;61944;52.538;6.108;2023-04-28T06:33:53;100990.47;;;7.96;93.39
73651;BME280;61944;52.538;6.108;2023-04-28T06:36:18;100985.22;;;7.94;94.81
73651;BME280;61944;52.538;6.108;2023-04-28T06:38:44;100990.63;;;8.03;94.34
73651;BME280;61944;52.538;6.108;2023-04-28T06:41:10;101006.66;;;8.06;95.77
73651;BME280;61944;52.538;6.108;2023-04-28T06:43:36;101007.75;;;8.17;95.23
73651;BME280;61944;52.538;6.108;2023-04-28T06:46:02;101005.59;;;8.10;99.01
73651;BME280;61944;52.538;6.108;2023-04-28T06:48:27;100998.41;;;8.25;100.00
73651;BME280;61944;52.538;6.108;2023-04-28T06:50:53;100992.09;;;8.28;100.00
73651;BME280;61944;52.538;6.108;2023-04-28T06:53:18;100989.13;;;8.21;100.00
73651;BME280;61944;52.538;6.108;2023-04-28T06:55:44;100963.94;;;8.02;100.00
73651;BME280;61944;52.538;6.108;2023-04-28T06:58:09;100949.19;;;8.01;100.00
73651;BME280;61944;52.538;6.108;2023-04-28T07:00:35;100937.97;;;7.98;100.00
73651;BME280;61944;52.538;6.108;2023-04-28T07:03:01;100948.81;;;8.03;100.00
73651;BME280;61944;52.538;6.108;2023-04-28T07:05:26;100942.56;;;8.06;100.00
73651;BME280;61944;52.538;6.108;2023-04-28T07:07:53;100930.31;;;8.10;100.00
73651;BME280;61944;52.538;6.108;2023-04-28T07:10:18;100920.25;;;8.06;100.00
73651;BME280;61944;52.538;6.108;2023-04-28T07:12:45;100946.16;;;8.22;100.00
73651;BME280;61944;52.538;6.108;2023-04-28T07:15:10;100935.16;;;8.13;100.00
73651;BME280;61944;52.538;6.108;2023-04-28T07:17:36;100931.47;;;8.25;100.00
73651;BME280;61944;52.538;6.108;2023-04-28T07:20:02;100923.41;;;8.20;100.00
73651;BME280;61944;52.538;6.108;2023-04-28T07:22:28;100918.06;;;8.31;100.00
73651;BME280;61944;52.538;6.108;2023-04-28T07:24:54;100920.34;;;8.41;100.00
73651;BME280;61944;52.538;6.108;2023-04-28T07:27:19;100932.47;;;8.49;100.00
73651;BME280;61944;52.538;6.108;2023-04-28T07:29:44;100923.28;;;8.32;100.00
73651;BME280;61944;52.538;6.108;2023-04-28T07:32:10;100951.00;;;8.57;100.00
73651;BME280;61944;52.538;6.108;2023-04-28T07:34:35;100952.50;;;8.70;100.00
73651;BME280;61944;52.538;6.108;2023-04-28T07:37:02;100945.63;;;8.84;100.00
73651;BME280;61944;52.538;6.108;2023-04-28T07:39:27;100954.50;;;8.89;100.00
73651;BME280;61944;52.538;6.108;2023-04-28T07:41:53;100958.84;;;8.87;100.00
73651;BME280;61944;52.538;6.108;2023-04-28T07:44:18;100965.75;;;8.93;100.00
73651;BME280;61944;52.538;6.108;2023-04-28T07:46:44;100943.28;;;8.86;100.00
73651;BME280;61944;52.538;6.108;2023-04-28T07:49:09;100962.72;;;8.98;100.00
73651;BME280;61944;52.538;6.108;2023-04-28T07:51:35;100958.16;;;9.09;100.00
73651;BME280;61944;52.538;6.108;2023-04-28T07:54:00;100951.56;;;9.18;100.00
73651;BME280;61944;52.538;6.108;2023-04-28T07:56:25;100958.59;;;9.31;100.00
73651;BME280;61944;52.538;6.108;2023-04-28T07:58:52;100940.38;;;9.37;100.00
73651;BME280;61944;52.538;6.108;2023-04-28T08:01:17;100942.41;;;9.40;100.00
73651;BME280;61944;52.538;6.108;2023-04-28T08:03:43;100960.44;;;9.62;100.00
73651;BME280;61944;52.538;6.108;2023-04-28T08:06:08;100959.56;;;9.58;100.00
73651;BME280;61944;52.538;6.108;2023-04-28T08:08:34;100968.69;;;9.55;100.00
73651;BME280;61944;52.538;6.108;2023-04-28T08:11:00;100969.63;;;9.63;100.00
73651;BME280;61944;52.538;6.108;2023-04-28T08:13:26;100965.34;;;9.69;100.00
73651;BME280;61944;52.538;6.108;2023-04-28T08:15:53;100961.06;;;9.75;100.00
73651;BME280;61944;52.538;6.108;2023-04-28T08:18:20;100954.25;;;9.72;100.00
73651;BME280;61944;52.538;6.108;2023-04-28T08:20:47;100946.59;;;9.69;100.00
73651;BME280;61944;52.538;6.108;2023-04-28T08:23:16;100935.16;;;9.78;100.00
73651;BME280;61944;52.538;6.108;2023-04-28T08:25:41;100945.28;;;9.86;100.00
73651;BME280;61944;52.538;6.108;2023-04-28T08:28:07;100926.13;;;9.85;100.00
73651;BME280;61944;52.538;6.108;2023-04-28T08:30:33;100926.56;;;10.10;100.00
73651;BME280;61944;52.538;6.108;2023-04-28T08:32:58;100925.69;;;10.06;100.00
73651;BME280;61944;52.538;6.108;2023-04-28T08:35:24;100921.69;;;10.07;100.00
73651;BME280;61944;52.538;6.108;2023-04-28T08:37:51;100931.50;;;10.20;100.00
73651;BME280;61944;52.538;6.108;2023-04-28T08:40:16;100932.78;;;10.23;100.00
73651;BME280;61944;52.538;6.108;2023-04-28T08:42:43;100939.97;;;10.24;100.00
73651;BME280;61944;52.538;6.108;2023-04-28T08:45:12;100949.69;;;10.30;100.00
73651;BME280;61944;52.538;6.108;2023-04-28T08:47:39;100948.44;;;10.27;100.00
73651;BME280;61944;52.538;6.108;2023-04-28T08:50:12;100954.91;;;10.31;100.00
73651;BME280;61944;52.538;6.108;2023-04-28T08:52:39;100945.91;;;10.42;100.00
73651;BME280;61944;52.538;6.108;2023-04-28T08:55:08;100946.75;;;10.46;100.00
73651;BME280;61944;52.538;6.108;2023-04-28T09:00:05;100944.50;;;10.55;100.00
73651;BME280;61944;52.538;6.108;2023-04-28T09:02:31;100937.69;;;10.56;100.00
73651;BME280;61944;52.538;6.108;2023-04-28T09:04:57;100938.53;;;10.56;100.00
73651;BME280;61944;52.538;6.108;2023-04-28T09:07:22;100936.97;;;10.59;100.00
73651;BME280;61944;52.538;6.108;2023-04-28T09:09:48;100934.59;;;10.61;100.00
73651;BME280;61944;52.538;6.108;2023-04-28T09:12:13;100922.25;;;10.66;100.00
73651;BME280;61944;52.538;6.108;2023-04-28T09:14:38;100914.78;;;10.73;100.00
73651;BME280;61944;52.538;6.108;2023-04-28T09:17:11;100915.53;;;10.70;100.00
73651;BME280;61944;52.538;6.108;2023-04-28T09:19:38;100911.59;;;10.75;100.00
73651;BME280;61944;52.538;6.108;2023-04-28T09:22:05;100920.09;;;10.82;100.00
73651;BME280;61944;52.538;6.108;2023-04-28T09:24:34;100918.19;;;10.90;100.00
73651;BME280;61944;52.538;6.108;2023-04-28T09:27:03;100918.78;;;11.03;100.00
73651;BME280;61944;52.538;6.108;2023-04-28T09:29:32;100904.88;;;11.10;100.00
73651;BME280;61944;52.538;6.108;2023-04-28T09:32:19;100909.78;;;11.20;100.00
73651;BME280;61944;52.538;6.108;2023-04-28T09:34:47;100900.31;;;11.32;100.00
73651;BME280;61944;52.538;6.108;2023-04-28T09:37:20;100885.94;;;11.33;100.00
73651;BME280;61944;52.538;6.108;2023-04-28T09:39:48;100889.56;;;11.37;100.00
73651;BME280;61944;52.538;6.108;2023-04-28T09:42:37;100890.22;;;11.57;100.00
73651;BME280;61944;52.538;6.108;2023-04-28T09:45:04;100876.66;;;11.67;100.00
73651;BME280;61944;52.538;6.108;2023-04-28T09:47:31;100870.78;;;11.79;100.00
73651;BME280;61944;52.538;6.108;2023-04-28T09:50:03;100877.00;;;11.99;100.00
73651;BME280;61944;52.538;6.108;2023-04-28T09:52:29;100870.22;;;12.04;100.00
73651;BME280;61944;52.538;6.108;2023-04-28T09:54:55;100871.13;;;12.15;100.00
73651;BME280;61944;52.538;6.108;2023-04-28T09:57:22;100877.97;;;12.21;100.00
73651;BME280;61944;52.538;6.108;2023-04-28T09:59:49;100873.63;;;12.27;100.00
73651;BME280;61944;52.538;6.108;2023-04-28T10:02:15;100869.16;;;12.19;100.00
73651;BME280;61944;52.538;6.108;2023-04-28T10:04:43;100862.41;;;12.27;100.00
73651;BME280;61944;52.538;6.108;2023-04-28T10:07:11;100863.66;;;12.37;100.00
73651;BME280;61944;52.538;6.108;2023-04-28T10:09:38;100866.13;;;12.49;100.00
73651;BME280;61944;52.538;6.108;2023-04-28T10:12:04;100866.16;;;12.56;100.00
73651;BME280;61944;52.538;6.108;2023-04-28T10:14:31;100863.03;;;12.69;100.00
73651;BME280;61944;52.538;6.108;2023-04-28T10:16:58;100864.31;;;12.78;100.00
73651;BME280;61944;52.538;6.108;2023-04-28T10:19:23;100865.13;;;12.82;100.00
73651;BME280;61944;52.538;6.108;2023-04-28T10:22:05;100862.28;;;12.79;100.00
73651;BME280;61944;52.538;6.108;2023-04-28T10:25:34;100859.06;;;12.73;100.00
73651;BME280;61944;52.538;6.108;2023-04-28T10:27:34;100856.28;;;12.80;100.00
73651;BME280;61944;52.538;6.108;2023-04-28T10:30:36;100854.31;;;12.85;100.00
73651;BME280;61944;52.538;6.108;2023-04-28T10:38:28;100849.94;;;12.98;100.00
73651;BME280;61944;52.538;6.108;2023-04-28T10:40:54;100854.28;;;12.81;100.00
73651;BME280;61944;52.538;6.108;2023-04-28T10:45:58;100851.84;;;12.76;100.00
73651;BME280;61944;52.538;6.108;2023-04-28T10:56:14;100859.84;;;12.70;100.00
73651;BME280;61944;52.538;6.108;2023-04-28T10:58:42;100854.19;;;12.63;100.00
73651;BME280;61944;52.538;6.108;2023-04-28T11:01:29;100859.81;;;12.63;100.00
73651;BME280;61944;52.538;6.108;2023-04-28T11:04:05;100851.72;;;12.51;100.00
73651;BME280;61944;52.538;6.108;2023-04-28T11:06:43;100858.16;;;12.55;100.00
73651;BME280;61944;52.538;6.108;2023-04-28T11:12:23;100848.09;;;12.50;100.00
73651;BME280;61944;52.538;6.108;2023-04-28T11:16:52;100834.91;;;12.58;100.00
73651;BME280;61944;52.538;6.108;2023-04-28T11:19:26;100833.66;;;12.52;100.00
73651;BME280;61944;52.538;6.108;2023-04-28T11:21:54;100845.31;;;12.54;100.00
73651;BME280;61944;52.538;6.108;2023-04-28T11:24:21;100840.50;;;12.54;100.00
73651;BME280;61944;52.538;6.108;2023-04-28T11:26:47;100842.88;;;12.49;100.00
73651;BME280;61944;52.538;6.108;2023-04-28T11:29:13;100841.28;;;12.51;100.00
73651;BME280;61944;52.538;6.108;2023-04-28T11:31:39;100850.91;;;12.54;100.00
73651;BME280;61944;52.538;6.108;2023-04-28T11:34:19;100847.25;;;12.43;100.00
73651;BME280;61944;52.538;6.108;2023-04-28T11:36:45;100847.66;;;12.45;100.00
73651;BME280;61944;52.538;6.108;2023-04-28T11:39:12;100838.03;;;12.46;100.00
73651;BME280;61944;52.538;6.108;2023-04-28T11:41:43;100847.28;;;12.50;100.00
73651;BME280;61944;52.538;6.108;2023-04-28T11:44:14;100843.66;;;12.42;100.00
73651;BME280;61944;52.538;6.108;2023-04-28T11:46:47;100834.41;;;12.38;100.00
73651;BME280;61944;52.538;6.108;2023-04-28T11:49:16;100842.81;;;12.41;100.00
73651;BME280;61944;52.538;6.108;2023-04-28T11:51:41;100842.00;;;12.37;100.00
73651;BME280;61944;52.538;6.108;2023-04-28T11:54:09;100844.44;;;12.43;100.00
73651;BME280;61944;52.538;6.108;2023-04-28T11:56:42;100851.22;;;12.34;100.00
73651;BME280;61944;52.538;6.108;2023-04-28T11:59:10;100840.28;;;12.18;100.00
73651;BME280;61944;52.538;6.108;2023-04-28T12:01:48;100847.47;;;12.16;100.00
73651;BME280;61944;52.538;6.108;2023-04-28T12:04:25;100856.34;;;12.22;100.00
73651;BME280;61944;52.538;6.108;2023-04-28T12:06:58;100851.13;;;12.24;100.00
73651;BME280;61944;52.538;6.108;2023-04-28T12:09:24;100853.09;;;12.19;100.00
73651;BME280;61944;52.538;6.108;2023-04-28T12:11:58;100847.53;;;12.23;100.00
73651;BME280;61944;52.538;6.108;2023-04-28T12:14:24;100853.53;;;12.22;100.00
73651;BME280;61944;52.538;6.108;2023-04-28T12:16:50;100842.75;;;12.27;100.00
73651;BME280;61944;52.538;6.108;2023-04-28T12:19:16;100835.53;;;12.30;100.00
73651;BME280;61944;52.538;6.108;2023-04-28T12:22:03;100841.19;;;12.33;100.00
73651;BME280;61944;52.538;6.108;2023-04-28T12:24:29;100844.84;;;12.45;100.00
73651;BME280;61944;52.538;6.108;2023-04-28T12:27:13;100838.41;;;12.40;100.00
73651;BME280;61944;52.538;6.108;2023-04-28T12:29:42;100840.50;;;12.51;100.00
73651;BME280;61944;52.538;6.108;2023-04-28T12:32:09;100843.75;;;12.64;100.00
73651;BME280;61944;52.538;6.108;2023-04-28T12:34:35;100832.56;;;12.71;100.00
73651;BME280;61944;52.538;6.108;2023-04-28T12:37:02;100830.25;;;12.98;100.00
73651;BME280;61944;52.538;6.108;2023-04-28T12:39:28;100830.25;;;12.91;100.00
73651;BME280;61944;52.538;6.108;2023-04-28T12:41:53;100823.41;;;12.92;100.00
73651;BME280;61944;52.538;6.108;2023-04-28T12:44:23;100827.06;;;12.99;100.00
73651;BME280;61944;52.538;6.108;2023-04-28T12:46:50;100824.69;;;13.05;100.00
73651;BME280;61944;52.538;6.108;2023-04-28T12:49:16;100819.00;;;12.91;100.00
73651;BME280;61944;52.538;6.108;2023-04-28T12:51:41;100821.06;;;13.01;100.00
73651;BME280;61944;52.538;6.108;2023-04-28T12:54:06;100816.16;;;12.84;100.00
73651;BME280;61944;52.538;6.108;2023-04-28T12:56:32;100815.34;;;12.79;100.00
73651;BME280;61944;52.538;6.108;2023-04-28T12:58:58;100824.19;;;12.81;100.00
73651;BME280;61944;52.538;6.108;2023-04-28T13:01:24;100814.13;;;12.77;100.00
73651;BME280;61944;52.538;6.108;2023-04-28T13:03:49;100816.56;;;12.86;100.00
73651;BME280;61944;52.538;6.108;2023-04-28T13:06:17;100811.38;;;12.88;100.00
73651;BME280;61944;52.538;6.108;2023-04-28T13:08:42;100805.38;;;12.93;100.00
73651;BME280;61944;52.538;6.108;2023-04-28T13:11:09;100817.44;;;13.00;100.00